sensor_id;sensor_type;location;lat;lon;timestamp;pressure;altitude;pressure_sealevel;temperature;humidity
34674;BME280;20879;55.668;37.858;2023-02-15T00:01:34;100029.25;;;-2.44;81.67
34674;BME280;20879;55.668;37.858;2023-02-15T00:04:13;100011.63;;;-2.41;81.09
34674;BME280;20879;55.668;37.858;2023-02-15T00:06:42;100014.72;;;-2.49;80.93
34674;BME280;20879;55.668;37.858;2023-02-15T00:09:12;100007.72;;;-2.33;81.08
34674;BME280;20879;55.668;37.858;2023-02-15T00:11:46;100050.47;;;-2.42;80.85
34674;BME280;20879;55.668;37.858;2023-02-15T00:14:22;100054.75;;;-2.41;81.38
34674;BME280;20879;55.668;37.858;2023-02-15T00:16:53;100056.44;;;-2.40;81.36
34674;BME280;20879;55.668;37.858;2023-02-15T00:19:26;100039.66;;;-2.38;81.94
34674;BME280;20879;55.668;37.858;2023-02-15T00:21:55;100043.81;;;-2.60;82.64
34674;BME280;20879;55.668;37.858;2023-02-15T00:24:25;100052.69;;;-2.50;82.60
34674;BME280;20879;55.668;37.858;2023-02-15T00:26:54;100041.72;;;-2.49;82.33
34674;BME280;20879;55.668;37.858;2023-02-15T00:29:23;100069.81;;;-2.44;82.64
34674;BME280;20879;55.668;37.858;2023-02-15T00:31:54;100022.69;;;-2.39;82.36
34674;BME280;20879;55.668;37.858;2023-02-15T00:34:26;100041.72;;;-2.49;82.36
34674;BME280;20879;55.668;37.858;2023-02-15T00:36:56;100054.88;;;-2.38;81.96
34674;BME280;20879;55.668;37.858;2023-02-15T00:39:37;100043.50;;;-2.47;82.30
34674;BME280;20879;55.668;37.858;2023-02-15T00:42:06;100047.06;;;-2.43;81.99
34674;BME280;20879;55.668;37.858;2023-02-15T00:44:36;100051.91;;;-2.48;81.79
34674;BME280;20879;55.668;37.858;2023-02-15T00:47:07;100050.09;;;-2.31;81.71
34674;BME280;20879;55.668;37.858;2023-02-15T00:49:43;100044.53;;;-2.43;81.72
34674;BME280;20879;55.668;37.858;2023-02-15T00:52:12;100031.09;;;-2.40;81.51
34674;BME280;20879;55.668;37.858;2023-02-15T00:54:43;100060.31;;;-2.29;81.55
34674;BME280;20879;55.668;37.858;2023-02-15T00:57:12;100055.19;;;-2.31;81.41
34674;BME280;20879;55.668;37.858;2023-02-15T00:59:42;100060.44;;;-2.26;81.08
34674;BME280;20879;55.668;37.858;2023-02-15T01:02:13;100063.50;;;-2.33;81.35
34674;BME280;20879;55.668;37.858;2023-02-15T01:04:42;100043.84;;;-2.39;81.44
34674;BME280;20879;55.668;37.858;2023-02-15T01:07:11;100059.81;;;-2.41;81.39
34674;BME280;20879;55.668;37.858;2023-02-15T01:09:40;100063.81;;;-2.47;81.54
34674;BME280;20879;55.668;37.858;2023-02-15T01:12:10;100070.81;;;-2.41;81.73
34674;BME280;20879;55.668;37.858;2023-02-15T01:14:39;100066.88;;;-2.34;81.95
34674;BME280;20879;55.668;37.858;2023-02-15T01:17:08;100074.91;;;-2.44;82.29
34674;BME280;20879;55.668;37.858;2023-02-15T01:19:39;100059.13;;;-2.57;82.38
34674;BME280;20879;55.668;37.858;2023-02-15T01:22:09;100045.31;;;-2.44;82.37
34674;BME280;20879;55.668;37.858;2023-02-15T01:24:38;100072.44;;;-2.43;82.46
34674;BME280;20879;55.668;37.858;2023-02-15T01:27:12;100086.38;;;-2.53;82.71
34674;BME280;20879;55.668;37.858;2023-02-15T01:29:43;100078.34;;;-2.42;83.03
34674;BME280;20879;55.668;37.858;2023-02-15T01:32:12;100083.44;;;-2.42;82.45
34674;BME280;20879;55.668;37.858;2023-02-15T01:34:45;100085.84;;;-2.46;83.62
34674;BME280;20879;55.668;37.858;2023-02-15T01:37:14;100087.09;;;-2.55;84.14
34674;BME280;20879;55.668;37.858;2023-02-15T01:39:44;100060.75;;;-2.59;83.99
34674;BME280;20879;55.668;37.858;2023-02-15T01:42:13;100080.63;;;-2.68;84.08
34674;BME280;20879;55.668;37.858;2023-02-15T01:44:52;100090.34;;;-2.58;84.52
34674;BME280;20879;55.668;37.858;2023-02-15T01:47:26;100096.63;;;-2.50;83.61
34674;BME280;20879;55.668;37.858;2023-02-15T01:50:06;100092.38;;;-2.51;83.29
34674;BME280;20879;55.668;37.858;2023-02-15T01:52:52;100101.78;;;-2.48;83.49
34674;BME280;20879;55.668;37.858;2023-02-15T01:55:33;100099.78;;;-2.55;82.98
34674;BME280;20879;55.668;37.858;2023-02-15T01:58:05;100096.25;;;-2.59;83.31
34674;BME280;20879;55.668;37.858;2023-02-15T02:00:35;100091.31;;;-2.56;83.39
34674;BME280;20879;55.668;37.858;2023-02-15T02:03:10;100084.09;;;-2.66;82.51
34674;BME280;20879;55.668;37.858;2023-02-15T02:05:48;100100.38;;;-2.61;81.87
34674;BME280;20879;55.668;37.858;2023-02-15T02:08:17;100065.00;;;-2.77;81.73
34674;BME280;20879;55.668;37.858;2023-02-15T02:10:47;100094.97;;;-2.69;81.71
34674;BME280;20879;55.668;37.858;2023-02-15T02:13:21;100096.03;;;-2.83;82.50
34674;BME280;20879;55.668;37.858;2023-02-15T02:16:15;100096.16;;;-2.80;82.18
34674;BME280;20879;55.668;37.858;2023-02-15T02:18:54;100087.75;;;-2.79;81.75
34674;BME280;20879;55.668;37.858;2023-02-15T02:24:54;100070.09;;;-2.77;79.89
34674;BME280;20879;55.668;37.858;2023-02-15T02:27:34;100079.50;;;-2.75;80.90
34674;BME280;20879;55.668;37.858;2023-02-15T02:30:27;100107.72;;;-2.67;80.29
34674;BME280;20879;55.668;37.858;2023-02-15T02:36:14;100099.72;;;-2.57;80.30
34674;BME280;20879;55.668;37.858;2023-02-15T02:39:01;100104.84;;;-2.55;78.90
34674;BME280;20879;55.668;37.858;2023-02-15T02:41:47;100100.44;;;-2.59;79.47
34674;BME280;20879;55.668;37.858;2023-02-15T02:44:26;100077.28;;;-2.87;78.77
34674;BME280;20879;55.668;37.858;2023-02-15T02:47:09;100122.78;;;-2.70;78.88
34674;BME280;20879;55.668;37.858;2023-02-15T02:49:42;100132.22;;;-2.68;78.79
34674;BME280;20879;55.668;37.858;2023-02-15T02:52:39;100123.72;;;-2.68;78.02
34674;BME280;20879;55.668;37.858;2023-02-15T02:55:11;100106.44;;;-2.77;78.42
34674;BME280;20879;55.668;37.858;2023-02-15T02:57:48;100093.75;;;-2.96;78.29
34674;BME280;20879;55.668;37.858;2023-02-15T03:00:21;100129.94;;;-2.81;78.49
34674;BME280;20879;55.668;37.858;2023-02-15T03:02:53;100136.84;;;-2.77;78.60
34674;BME280;20879;55.668;37.858;2023-02-15T03:05:27;100127.06;;;-2.69;77.99
34674;BME280;20879;55.668;37.858;2023-02-15T03:08:03;100114.66;;;-2.63;78.46
34674;BME280;20879;55.668;37.858;2023-02-15T03:10:37;100105.19;;;-2.67;78.02
34674;BME280;20879;55.668;37.858;2023-02-15T03:13:07;100131.63;;;-2.62;77.40
34674;BME280;20879;55.668;37.858;2023-02-15T03:15:44;100136.38;;;-2.68;77.26
34674;BME280;20879;55.668;37.858;2023-02-15T03:18:31;100132.22;;;-2.86;77.39
34674;BME280;20879;55.668;37.858;2023-02-15T03:21:05;100147.44;;;-2.86;77.83
34674;BME280;20879;55.668;37.858;2023-02-15T03:23:59;100134.25;;;-2.78;77.75
34674;BME280;20879;55.668;37.858;2023-02-15T03:26:32;100092.19;;;-2.93;77.91
34674;BME280;20879;55.668;37.858;2023-02-15T03:29:05;100124.16;;;-2.96;78.27
34674;BME280;20879;55.668;37.858;2023-02-15T03:31:40;100140.97;;;-2.99;78.22
34674;BME280;20879;55.668;37.858;2023-02-15T03:34:11;100126.03;;;-2.92;78.18
34674;BME280;20879;55.668;37.858;2023-02-15T03:36:45;100143.44;;;-2.81;77.89
34674;BME280;20879;55.668;37.858;2023-02-15T03:39:21;100127.47;;;-2.79;77.08
34674;BME280;20879;55.668;37.858;2023-02-15T03:42:01;100128.09;;;-2.84;77.25
34674;BME280;20879;55.668;37.858;2023-02-15T03:44:47;100131.22;;;-2.89;77.47
34674;BME280;20879;55.668;37.858;2023-02-15T03:47:26;100154.47;;;-2.98;77.53
34674;BME280;20879;55.668;37.858;2023-02-15T03:50:03;100115.09;;;-3.09;77.60
34674;BME280;20879;55.668;37.858;2023-02-15T03:55:39;100124.72;;;-3.02;78.08
34674;BME280;20879;55.668;37.858;2023-02-15T03:58:09;100144.22;;;-3.01;78.32
34674;BME280;20879;55.668;37.858;2023-02-15T04:00:56;100131.47;;;-3.03;78.28
34674;BME280;20879;55.668;37.858;2023-02-15T04:03:48;100119.19;;;-3.13;78.60
34674;BME280;20879;55.668;37.858;2023-02-15T04:06:19;100167.09;;;-3.18;78.78
34674;BME280;20879;55.668;37.858;2023-02-15T04:08:54;100160.63;;;-3.11;78.52
34674;BME280;20879;55.668;37.858;2023-02-15T04:11:44;100154.88;;;-3.26;78.70
34674;BME280;20879;55.668;37.858;2023-02-15T04:14:13;100132.72;;;-3.30;78.83
34674;BME280;20879;55.668;37.858;2023-02-15T04:17:05;100128.38;;;-3.33;79.08
34674;BME280;20879;55.668;37.858;2023-02-15T04:19:37;100135.31;;;-3.29;78.73
34674;BME280;20879;55.668;37.858;2023-02-15T04:22:19;100176.19;;;-3.21;78.72
34674;BME280;20879;55.668;37.858;2023-02-15T04:25:07;100155.44;;;-3.32;78.25
34674;BME280;20879;55.668;37.858;2023-02-15T04:27:43;100174.97;;;-3.29;79.17
34674;BME280;20879;55.668;37.858;2023-02-15T04:30:14;100144.50;;;-3.49;79.04
34674;BME280;20879;55.668;37.858;2023-02-15T04:32:50;100161.06;;;-3.38;79.81
34674;BME280;20879;55.668;37.858;2023-02-15T04:35:19;100164.25;;;-3.42;79.80
34674;BME280;20879;55.668;37.858;2023-02-15T04:37:48;100163.47;;;-3.41;80.01
34674;BME280;20879;55.668;37.858;2023-02-15T04:40:18;100178.22;;;-3.32;79.77
34674;BME280;20879;55.668;37.858;2023-02-15T04:42:50;100135.47;;;-3.44;79.46
34674;BME280;20879;55.668;37.858;2023-02-15T04:45:19;100146.59;;;-3.58;79.38
34674;BME280;20879;55.668;37.858;2023-02-15T04:47:53;100160.66;;;-3.47;79.25
34674;BME280;20879;55.668;37.858;2023-02-15T04:50:23;100169.59;;;-3.36;79.54
34674;BME280;20879;55.668;37.858;2023-02-15T04:52:52;100167.00;;;-3.37;78.12
34674;BME280;20879;55.668;37.858;2023-02-15T04:55:32;100165.84;;;-3.44;78.12
34674;BME280;20879;55.668;37.858;2023-02-15T04:58:03;100123.31;;;-3.33;77.98
34674;BME280;20879;55.668;37.858;2023-02-15T05:00:33;100145.44;;;-3.47;77.98
34674;BME280;20879;55.668;37.858;2023-02-15T05:03:03;100149.19;;;-3.57;77.70
34674;BME280;20879;55.668;37.858;2023-02-15T05:05:37;100135.91;;;-3.53;78.00
34674;BME280;20879;55.668;37.858;2023-02-15T05:08:07;100076.00;;;-3.52;77.48
34674;BME280;20879;55.668;37.858;2023-02-15T05:10:36;100129.94;;;-3.53;77.84
34674;BME280;20879;55.668;37.858;2023-02-15T05:13:07;100113.41;;;-3.46;77.44
34674;BME280;20879;55.668;37.858;2023-02-15T05:15:46;100172.84;;;-3.56;77.57
34674;BME280;20879;55.668;37.858;2023-02-15T05:18:16;100159.63;;;-3.51;78.03
34674;BME280;20879;55.668;37.858;2023-02-15T05:20:46;100188.66;;;-3.60;79.70
34674;BME280;20879;55.668;37.858;2023-02-15T05:23:16;100172.84;;;-3.56;81.31
34674;BME280;20879;55.668;37.858;2023-02-15T05:25:48;100190.47;;;-3.58;81.41
34674;BME280;20879;55.668;37.858;2023-02-15T05:28:33;100184.28;;;-3.64;81.84
34674;BME280;20879;55.668;37.858;2023-02-15T05:31:05;100195.06;;;-3.51;81.72
34674;BME280;20879;55.668;37.858;2023-02-15T05:33:36;100196.94;;;-3.46;80.28
34674;BME280;20879;55.668;37.858;2023-02-15T05:36:06;100193.78;;;-3.42;79.25
34674;BME280;20879;55.668;37.858;2023-02-15T05:38:42;100143.38;;;-3.72;77.87
34674;BME280;20879;55.668;37.858;2023-02-15T05:41:11;100166.84;;;-3.58;77.23
34674;BME280;20879;55.668;37.858;2023-02-15T05:43:43;100150.75;;;-3.59;76.66
34674;BME280;20879;55.668;37.858;2023-02-15T05:46:13;100204.44;;;-3.66;77.02
34674;BME280;20879;55.668;37.858;2023-02-15T05:48:42;100158.56;;;-3.72;77.14
34674;BME280;20879;55.668;37.858;2023-02-15T05:51:12;100194.13;;;-3.69;77.55
34674;BME280;20879;55.668;37.858;2023-02-15T05:53:42;100191.59;;;-3.53;78.29
34674;BME280;20879;55.668;37.858;2023-02-15T05:56:12;100202.16;;;-3.43;77.81
34674;BME280;20879;55.668;37.858;2023-02-15T05:58:48;100211.88;;;-3.35;77.96
34674;BME280;20879;55.668;37.858;2023-02-15T06:01:18;100204.28;;;-3.35;77.53
34674;BME280;20879;55.668;37.858;2023-02-15T06:03:49;100186.41;;;-3.38;77.30
34674;BME280;20879;55.668;37.858;2023-02-15T06:06:18;100165.78;;;-3.45;77.67
34674;BME280;20879;55.668;37.858;2023-02-15T06:08:48;100179.31;;;-3.27;75.71
34674;BME280;20879;55.668;37.858;2023-02-15T06:11:17;100210.88;;;-3.38;76.41
34674;BME280;20879;55.668;37.858;2023-02-15T06:13:48;100218.59;;;-3.35;75.65
34674;BME280;20879;55.668;37.858;2023-02-15T06:16:20;100171.78;;;-3.43;75.65
34674;BME280;20879;55.668;37.858;2023-02-15T06:18:49;100225.09;;;-3.40;75.35
34674;BME280;20879;55.668;37.858;2023-02-15T06:21:19;100207.72;;;-3.51;75.12
34674;BME280;20879;55.668;37.858;2023-02-15T06:23:58;100235.00;;;-3.45;75.08
34674;BME280;20879;55.668;37.858;2023-02-15T06:26:34;100201.25;;;-3.62;74.48
34674;BME280;20879;55.668;37.858;2023-02-15T06:29:05;100194.19;;;-3.51;75.09
34674;BME280;20879;55.668;37.858;2023-02-15T06:31:34;100231.75;;;-3.42;75.40
34674;BME280;20879;55.668;37.858;2023-02-15T06:34:04;100244.78;;;-3.35;74.73
34674;BME280;20879;55.668;37.858;2023-02-15T06:36:33;100175.34;;;-3.74;75.32
34674;BME280;20879;55.668;37.858;2023-02-15T06:39:03;100204.84;;;-3.75;75.53
34674;BME280;20879;55.668;37.858;2023-02-15T06:41:33;100235.13;;;-3.60;76.11
34674;BME280;20879;55.668;37.858;2023-02-15T06:44:09;100235.91;;;-3.61;76.45
34674;BME280;20879;55.668;37.858;2023-02-15T06:46:40;100237.78;;;-3.57;76.52
34674;BME280;20879;55.668;37.858;2023-02-15T06:49:09;100209.84;;;-3.76;76.99
34674;BME280;20879;55.668;37.858;2023-02-15T06:51:44;100237.16;;;-3.53;77.00
34674;BME280;20879;55.668;37.858;2023-02-15T06:54:16;100248.38;;;-3.47;75.54
34674;BME280;20879;55.668;37.858;2023-02-15T06:56:46;100227.78;;;-3.37;75.72
34674;BME280;20879;55.668;37.858;2023-02-15T06:59:19;100228.75;;;-3.35;74.50
34674;BME280;20879;55.668;37.858;2023-02-15T07:01:48;100230.22;;;-3.39;74.58
34674;BME280;20879;55.668;37.858;2023-02-15T07:04:18;100239.66;;;-3.36;75.01
34674;BME280;20879;55.668;37.858;2023-02-15T07:06:53;100223.75;;;-3.34;73.81
34674;BME280;20879;55.668;37.858;2023-02-15T07:09:22;100240.47;;;-3.19;74.09
34674;BME280;20879;55.668;37.858;2023-02-15T07:11:57;100226.06;;;-3.38;74.04
34674;BME280;20879;55.668;37.858;2023-02-15T07:14:46;100244.72;;;-3.36;74.33
34674;BME280;20879;55.668;37.858;2023-02-15T07:17:16;100256.19;;;-3.43;74.58
34674;BME280;20879;55.668;37.858;2023-02-15T07:20:10;100243.72;;;-3.22;74.89
34674;BME280;20879;55.668;37.858;2023-02-15T07:22:51;100228.97;;;-3.12;75.01
34674;BME280;20879;55.668;37.858;2023-02-15T07:25:21;100243.03;;;-3.01;74.88
34674;BME280;20879;55.668;37.858;2023-02-15T07:27:55;100263.88;;;-3.07;74.85
34674;BME280;20879;55.668;37.858;2023-02-15T07:30:27;100239.81;;;-3.15;75.86
34674;BME280;20879;55.668;37.858;2023-02-15T07:33:03;100229.09;;;-3.09;75.37
34674;BME280;20879;55.668;37.858;2023-02-15T07:35:48;100248.22;;;-3.16;76.06
34674;BME280;20879;55.668;37.858;2023-02-15T07:38:24;100242.25;;;-3.00;75.75
34674;BME280;20879;55.668;37.858;2023-02-15T07:40:59;100222.63;;;-3.04;76.14
34674;BME280;20879;55.668;37.858;2023-02-15T07:43:34;100255.91;;;-2.78;74.16
34674;BME280;20879;55.668;37.858;2023-02-15T07:46:08;100229.13;;;-2.91;73.88
34674;BME280;20879;55.668;37.858;2023-02-15T07:48:39;100219.63;;;-2.77;73.84
34674;BME280;20879;55.668;37.858;2023-02-15T07:51:10;100238.53;;;-2.71;73.33
34674;BME280;20879;55.668;37.858;2023-02-15T07:53:41;100256.00;;;-2.59;72.57
34674;BME280;20879;55.668;37.858;2023-02-15T07:56:12;100261.47;;;-2.50;72.19
34674;BME280;20879;55.668;37.858;2023-02-15T07:58:41;100255.88;;;-2.42;72.48
34674;BME280;20879;55.668;37.858;2023-02-15T08:01:24;100255.75;;;-2.46;72.01
34674;BME280;20879;55.668;37.858;2023-02-15T08:03:54;100254.25;;;-2.60;72.72
34674;BME280;20879;55.668;37.858;2023-02-15T08:06:27;100259.69;;;-2.70;72.97
34674;BME280;20879;55.668;37.858;2023-02-15T08:08:57;100251.44;;;-2.66;73.45
34674;BME280;20879;55.668;37.858;2023-02-15T08:11:34;100276.28;;;-2.59;73.64
34674;BME280;20879;55.668;37.858;2023-02-15T08:14:12;100249.75;;;-2.66;72.70
34674;BME280;20879;55.668;37.858;2023-02-15T08:16:50;100236.50;;;-2.60;72.86
34674;BME280;20879;55.668;37.858;2023-02-15T08:19:24;100277.63;;;-2.66;73.22
34674;BME280;20879;55.668;37.858;2023-02-15T08:21:55;100218.47;;;-2.66;72.44
34674;BME280;20879;55.668;37.858;2023-02-15T08:24:27;100238.53;;;-2.89;73.95
34674;BME280;20879;55.668;37.858;2023-02-15T08:26:57;100288.63;;;-3.01;73.92
34674;BME280;20879;55.668;37.858;2023-02-15T08:29:33;100295.28;;;-3.03;75.21
34674;BME280;20879;55.668;37.858;2023-02-15T08:32:07;100301.53;;;-2.78;74.91
34674;BME280;20879;55.668;37.858;2023-02-15T08:34:39;100282.78;;;-2.82;74.28
34674;BME280;20879;55.668;37.858;2023-02-15T08:37:09;100302.00;;;-3.22;75.57
34674;BME280;20879;55.668;37.858;2023-02-15T08:39:38;100296.03;;;-3.22;75.11
34674;BME280;20879;55.668;37.858;2023-02-15T08:42:09;100218.13;;;-3.28;74.28
34674;BME280;20879;55.668;37.858;2023-02-15T08:44:49;100290.03;;;-3.24;75.16
34674;BME280;20879;55.668;37.858;2023-02-15T08:47:21;100302.78;;;-3.23;75.69
34674;BME280;20879;55.668;37.858;2023-02-15T08:49:50;100290.34;;;-3.18;75.75
34674;BME280;20879;55.668;37.858;2023-02-15T08:52:19;100299.91;;;-3.12;76.27
34674;BME280;20879;55.668;37.858;2023-02-15T08:54:49;100308.41;;;-2.94;75.82
34674;BME280;20879;55.668;37.858;2023-02-15T08:57:18;100284.16;;;-2.89;74.61
34674;BME280;20879;55.668;37.858;2023-02-15T08:59:47;100299.41;;;-3.05;74.56
34674;BME280;20879;55.668;37.858;2023-02-15T09:02:17;100306.72;;;-2.93;74.99
34674;BME280;20879;55.668;37.858;2023-02-15T09:04:53;100286.63;;;-2.72;74.56
34674;BME280;20879;55.668;37.858;2023-02-15T09:07:22;100242.50;;;-2.76;74.06
34674;BME280;20879;55.668;37.858;2023-02-15T09:09:52;100251.28;;;-3.05;73.76
34674;BME280;20879;55.668;37.858;2023-02-15T09:12:23;100309.06;;;-2.98;74.34
34674;BME280;20879;55.668;37.858;2023-02-15T09:14:58;100299.88;;;-2.78;74.52
34674;BME280;20879;55.668;37.858;2023-02-15T09:17:29;100308.41;;;-2.58;73.11
34674;BME280;20879;55.668;37.858;2023-02-15T09:20:01;100291.28;;;-2.64;72.97
34674;BME280;20879;55.668;37.858;2023-02-15T09:22:30;100273.16;;;-2.89;73.46
34674;BME280;20879;55.668;37.858;2023-02-15T09:25:00;100290.66;;;-2.94;73.55
34674;BME280;20879;55.668;37.858;2023-02-15T09:27:34;100279.81;;;-2.91;73.09
34674;BME280;20879;55.668;37.858;2023-02-15T09:30:04;100293.50;;;-2.88;72.67
34674;BME280;20879;55.668;37.858;2023-02-15T09:32:33;100316.31;;;-2.88;72.55
34674;BME280;20879;55.668;37.858;2023-02-15T09:35:07;100334.81;;;-2.89;72.87
34674;BME280;20879;55.668;37.858;2023-02-15T09:37:36;100297.72;;;-3.05;73.37
34674;BME280;20879;55.668;37.858;2023-02-15T09:40:07;100321.13;;;-3.10;74.31
34674;BME280;20879;55.668;37.858;2023-02-15T09:42:49;100322.38;;;-2.84;73.85
34674;BME280;20879;55.668;37.858;2023-02-15T09:45:34;100326.97;;;-2.59;73.14
34674;BME280;20879;55.668;37.858;2023-02-15T09:48:30;100304.13;;;-2.77;72.73
34674;BME280;20879;55.668;37.858;2023-02-15T09:51:25;100340.16;;;-2.48;72.08
34674;BME280;20879;55.668;37.858;2023-02-15T09:54:20;100329.94;;;-2.68;72.21
34674;BME280;20879;55.668;37.858;2023-02-15T09:56:55;100327.84;;;-2.58;72.74
34674;BME280;20879;55.668;37.858;2023-02-15T09:59:33;100305.88;;;-2.76;71.81
34674;BME280;20879;55.668;37.858;2023-02-15T10:02:16;100291.53;;;-2.93;72.39
34674;BME280;20879;55.668;37.858;2023-02-15T10:04:56;100308.34;;;-2.95;72.47
34674;BME280;20879;55.668;37.858;2023-02-15T10:07:47;100328.13;;;-2.88;72.76
34674;BME280;20879;55.668;37.858;2023-02-15T10:10:33;100224.31;;;-3.03;71.12
34674;BME280;20879;55.668;37.858;2023-02-15T10:13:24;100265.22;;;-3.13;70.72
34674;BME280;20879;55.668;37.858;2023-02-15T10:16:10;100244.66;;;-3.02;70.69
34674;BME280;20879;55.668;37.858;2023-02-15T10:18:55;100280.50;;;-3.12;70.59
34674;BME280;20879;55.668;37.858;2023-02-15T10:21:36;100300.94;;;-2.91;70.56
34674;BME280;20879;55.668;37.858;2023-02-15T10:24:29;100329.97;;;-2.84;70.08
34674;BME280;20879;55.668;37.858;2023-02-15T10:27:12;100351.22;;;-2.64;69.88
34674;BME280;20879;55.668;37.858;2023-02-15T10:29:47;100290.81;;;-2.73;69.64
34674;BME280;20879;55.668;37.858;2023-02-15T10:32:22;100351.09;;;-2.49;69.63
34674;BME280;20879;55.668;37.858;2023-02-15T10:34:57;100359.22;;;-2.38;69.28
34674;BME280;20879;55.668;37.858;2023-02-15T10:37:42;100342.03;;;-2.44;69.61
34674;BME280;20879;55.668;37.858;2023-02-15T10:40:23;100297.63;;;-2.54;68.98
34674;BME280;20879;55.668;37.858;2023-02-15T10:43:08;100330.94;;;-2.28;68.27
34674;BME280;20879;55.668;37.858;2023-02-15T10:45:52;100309.59;;;-2.51;68.49
34674;BME280;20879;55.668;37.858;2023-02-15T10:48:40;100361.38;;;-2.46;68.98
34674;BME280;20879;55.668;37.858;2023-02-15T10:51:20;100385.88;;;-2.29;69.32
34674;BME280;20879;55.668;37.858;2023-02-15T10:54:06;100369.50;;;-2.35;69.48
34674;BME280;20879;55.668;37.858;2023-02-15T10:56:48;100368.75;;;-2.51;69.12
34674;BME280;20879;55.668;37.858;2023-02-15T10:59:27;100363.97;;;-2.63;69.94
34674;BME280;20879;55.668;37.858;2023-02-15T11:02:17;100363.75;;;-2.67;70.08
34674;BME280;20879;55.668;37.858;2023-02-15T11:04:57;100375.22;;;-2.92;70.05
34674;BME280;20879;55.668;37.858;2023-02-15T11:07:37;100372.63;;;-2.93;71.25
34674;BME280;20879;55.668;37.858;2023-02-15T11:10:22;100388.75;;;-2.75;70.93
34674;BME280;20879;55.668;37.858;2023-02-15T11:12:57;100400.72;;;-2.72;71.08
34674;BME280;20879;55.668;37.858;2023-02-15T11:15:36;100392.28;;;-2.71;71.47
34674;BME280;20879;55.668;37.858;2023-02-15T11:18:14;100353.91;;;-2.79;71.70
34674;BME280;20879;55.668;37.858;2023-02-15T11:20:52;100392.47;;;-2.85;71.60
34674;BME280;20879;55.668;37.858;2023-02-15T11:23:26;100395.31;;;-2.78;71.95
34674;BME280;20879;55.668;37.858;2023-02-15T11:25:59;100382.50;;;-2.82;71.30
34674;BME280;20879;55.668;37.858;2023-02-15T11:28:33;100409.09;;;-2.73;71.10
34674;BME280;20879;55.668;37.858;2023-02-15T11:31:15;100406.72;;;-2.70;70.93
34674;BME280;20879;55.668;37.858;2023-02-15T11:33:49;100415.88;;;-2.56;70.19
34674;BME280;20879;55.668;37.858;2023-02-15T11:36:22;100410.53;;;-2.78;71.14
34674;BME280;20879;55.668;37.858;2023-02-15T11:38:59;100338.47;;;-2.84;70.90
34674;BME280;20879;55.668;37.858;2023-02-15T11:41:33;100375.84;;;-2.79;71.67
34674;BME280;20879;55.668;37.858;2023-02-15T11:44:14;100421.13;;;-2.69;71.16
34674;BME280;20879;55.668;37.858;2023-02-15T11:46:45;100414.38;;;-2.87;71.53
34674;BME280;20879;55.668;37.858;2023-02-15T11:49:22;100429.47;;;-2.72;70.68
34674;BME280;20879;55.668;37.858;2023-02-15T11:51:52;100441.75;;;-2.79;71.45
34674;BME280;20879;55.668;37.858;2023-02-15T11:54:30;100451.00;;;-2.64;69.80
34674;BME280;20879;55.668;37.858;2023-02-15T11:57:06;100420.88;;;-2.74;68.59
34674;BME280;20879;55.668;37.858;2023-02-15T11:59:44;100364.81;;;-2.80;67.71
34674;BME280;20879;55.668;37.858;2023-02-15T12:02:18;100388.53;;;-2.96;67.41
34674;BME280;20879;55.668;37.858;2023-02-15T12:04:52;100422.44;;;-2.94;67.24
34674;BME280;20879;55.668;37.858;2023-02-15T12:07:25;100437.50;;;-2.97;67.27
34674;BME280;20879;55.668;37.858;2023-02-15T12:10:02;100403.19;;;-2.90;66.08
34674;BME280;20879;55.668;37.858;2023-02-15T12:12:40;100451.72;;;-2.83;66.07
34674;BME280;20879;55.668;37.858;2023-02-15T12:15:12;100444.78;;;-2.87;66.22
34674;BME280;20879;55.668;37.858;2023-02-15T12:17:48;100463.19;;;-2.73;65.70
34674;BME280;20879;55.668;37.858;2023-02-15T12:20:28;100457.03;;;-2.78;64.57
34674;BME280;20879;55.668;37.858;2023-02-15T12:23:05;100447.94;;;-2.91;64.86
34674;BME280;20879;55.668;37.858;2023-02-15T12:25:41;100466.13;;;-2.82;65.68
34674;BME280;20879;55.668;37.858;2023-02-15T12:28:24;100455.06;;;-2.84;65.28
34674;BME280;20879;55.668;37.858;2023-02-15T12:30:57;100439.28;;;-2.94;64.98
34674;BME280;20879;55.668;37.858;2023-02-15T12:33:38;100400.00;;;-2.86;65.08
34674;BME280;20879;55.668;37.858;2023-02-15T12:36:18;100450.97;;;-3.14;65.73
34674;BME280;20879;55.668;37.858;2023-02-15T12:39:14;100409.81;;;-3.10;65.76
34674;BME280;20879;55.668;37.858;2023-02-15T12:41:58;100408.16;;;-3.26;67.11
34674;BME280;20879;55.668;37.858;2023-02-15T12:44:28;100347.59;;;-3.22;67.75
34674;BME280;20879;55.668;37.858;2023-02-15T12:53:33;100185.19;;;-5.09;69.62
34674;BME280;20879;55.668;37.858;2023-02-15T12:56:12;100463.00;;;-3.75;69.66
34674;BME280;20879;55.668;37.858;2023-02-15T12:59:04;100512.06;;;-3.25;69.67
34674;BME280;20879;55.668;37.858;2023-02-15T13:01:34;100510.09;;;-3.14;69.07
34674;BME280;20879;55.668;37.858;2023-02-15T13:04:06;100499.72;;;-3.02;69.34
34674;BME280;20879;55.668;37.858;2023-02-15T13:06:51;100493.56;;;-2.91;69.21
34674;BME280;20879;55.668;37.858;2023-02-15T13:09:26;100488.09;;;-2.82;67.84
34674;BME280;20879;55.668;37.858;2023-02-15T13:12:14;100490.72;;;-2.97;67.98
34674;BME280;20879;55.668;37.858;2023-02-15T13:17:35;100512.34;;;-2.71;68.03
34674;BME280;20879;55.668;37.858;2023-02-15T13:20:06;100516.91;;;-2.80;67.80
34674;BME280;20879;55.668;37.858;2023-02-15T13:22:53;100500.84;;;-2.97;66.81
34674;BME280;20879;55.668;37.858;2023-02-15T13:25:27;100507.78;;;-3.09;67.35
34674;BME280;20879;55.668;37.858;2023-02-15T13:28:01;100526.59;;;-3.06;67.41
34674;BME280;20879;55.668;37.858;2023-02-15T13:30:46;100551.25;;;-3.02;67.54
34674;BME280;20879;55.668;37.858;2023-02-15T13:33:23;100497.50;;;-3.12;67.59
34674;BME280;20879;55.668;37.858;2023-02-15T13:36:00;100542.66;;;-3.05;66.77
34674;BME280;20879;55.668;37.858;2023-02-15T13:38:46;100558.16;;;-2.99;67.56
34674;BME280;20879;55.668;37.858;2023-02-15T13:41:47;100555.84;;;-3.11;67.11